createdAt,value
2022-12-01T00:01:16.579Z,5.78
2022-12-01T00:03:43.737Z,5.57
2022-12-01T00:06:13.412Z,5.43
2022-12-01T00:08:40.114Z,5.10
2022-12-01T00:11:08.876Z,5.82
2022-12-01T00:13:36.020Z,5.43
2022-12-01T00:16:13.715Z,5.25
2022-12-01T00:18:40.725Z,5.20
2022-12-01T00:21:14.021Z,5.00
2022-12-01T00:23:43.717Z,5.30
2022-12-01T00:26:10.353Z,5.13
2022-12-01T00:28:36.911Z,5.40
2022-12-01T00:31:08.095Z,5.47
2022-12-01T00:33:34.751Z,5.45
2022-12-01T00:36:02.275Z,4.97
2022-12-01T00:38:29.419Z,5.93
2022-12-01T00:40:56.042Z,5.70
2022-12-01T00:43:22.799Z,5.13
2022-12-01T00:45:50.014Z,5.40
2022-12-01T00:48:16.832Z,5.68
2022-12-01T00:50:43.879Z,5.60
2022-12-01T00:53:10.737Z,5.28
2022-12-01T00:55:37.358Z,5.28
2022-12-01T00:58:04.524Z,5.40
2022-12-01T01:00:31.306Z,4.95
2022-12-01T01:02:57.908Z,5.18
2022-12-01T01:05:24.549Z,5.05
2022-12-01T01:07:51.299Z,5.15
2022-12-01T01:10:18.031Z,4.95
2022-12-01T01:12:44.637Z,5.25
2022-12-01T01:15:11.309Z,5.13
2022-12-01T01:17:37.966Z,4.85
2022-12-01T01:20:06.910Z,4.80
2022-12-01T01:22:35.394Z,4.28
2022-12-01T01:25:01.978Z,4.72
2022-12-01T01:27:28.556Z,5.15
2022-12-01T01:29:55.238Z,4.80
2022-12-01T01:32:21.980Z,4.82
2022-12-01T01:34:48.945Z,5.20
2022-12-01T01:37:15.610Z,4.80
2022-12-01T01:39:42.225Z,4.55
2022-12-01T01:42:13.305Z,4.72
2022-12-01T01:45:00.383Z,4.53
2022-12-01T01:47:36.944Z,5.03
2022-12-01T01:50:09.585Z,4.63
2022-12-01T01:52:43.102Z,4.80
2022-12-01T01:55:10.089Z,4.93
2022-12-01T01:57:38.000Z,4.80
2022-12-01T02:00:09.743Z,4.90
2022-12-01T02:02:44.980Z,5.03
2022-12-01T02:05:18.405Z,4.95
2022-12-01T02:07:46.835Z,4.57
2022-12-01T02:10:15.005Z,4.50
2022-12-01T02:12:52.543Z,4.80
2022-12-01T02:15:33.479Z,4.20
2022-12-01T02:18:25.892Z,4.60
2022-12-01T02:21:24.240Z,4.10
2022-12-01T02:24:10.300Z,4.28
2022-12-01T02:26:39.826Z,4.40
2022-12-01T02:29:44.334Z,4.05
2022-12-01T02:32:29.784Z,4.60
2022-12-01T02:35:04.637Z,4.25
2022-12-01T02:37:48.763Z,4.45
2022-12-01T02:40:24.910Z,4.55
2022-12-01T02:43:05.948Z,4.40
2022-12-01T02:45:56.519Z,4.22
2022-12-01T02:48:30.242Z,4.28
2022-12-01T02:51:01.207Z,4.35
2022-12-01T02:53:27.979Z,4.60
2022-12-01T02:55:57.626Z,4.15
2022-12-01T02:58:24.402Z,4.32
2022-12-01T03:01:08.146Z,4.50
2022-12-01T03:03:46.702Z,4.45
2022-12-01T03:06:44.192Z,3.78
2022-12-01T03:09:20.014Z,4.50
2022-12-01T03:12:08.953Z,4.55
2022-12-01T03:15:03.457Z,4.38
2022-12-01T03:17:56.177Z,4.22
2022-12-01T03:20:32.868Z,4.32
2022-12-01T03:23:08.682Z,4.30
2022-12-01T03:25:38.646Z,4.22
2022-12-01T03:28:24.601Z,4.30
2022-12-01T03:30:55.822Z,4.50
2022-12-01T03:33:33.426Z,4.68
2022-12-01T03:36:06.896Z,4.40
2022-12-01T03:38:36.353Z,4.68
2022-12-01T03:41:13.122Z,4.20
2022-12-01T03:43:45.070Z,4.47
2022-12-01T03:46:46.261Z,4.70
2022-12-01T03:49:15.022Z,4.60
2022-12-01T03:51:59.503Z,4.85
2022-12-01T03:54:57.446Z,4.47
2022-12-01T03:57:31.781Z,4.75
2022-12-01T03:59:58.519Z,4.60
2022-12-01T04:02:28.126Z,4.70
2022-12-01T04:04:55.025Z,4.45
2022-12-01T04:07:22.805Z,4.50
2022-12-01T04:09:50.035Z,4.40
2022-12-01T04:12:29.471Z,4.90
2022-12-01T04:15:10.079Z,4.55
2022-12-01T04:20:06.511Z,4.60
2022-12-01T04:22:33.869Z,4.88
2022-12-01T04:25:00.560Z,5.10
2022-12-01T04:27:27.258Z,5.53
2022-12-01T04:29:53.878Z,5.10
2022-12-01T04:32:20.587Z,5.32
2022-12-01T04:34:47.320Z,4.70
2022-12-01T04:37:14.038Z,4.57
2022-12-01T04:39:42.066Z,4.68
2022-12-01T04:42:09.777Z,4.35
2022-12-01T04:44:36.814Z,4.93
2022-12-01T04:47:05.008Z,4.55
2022-12-01T04:49:33.131Z,4.90
2022-12-01T04:51:59.740Z,4.60
2022-12-01T04:54:26.840Z,4.75
2022-12-01T04:56:53.572Z,4.78
2022-12-01T04:59:20.299Z,4.95
2022-12-01T05:01:48.168Z,5.25
2022-12-01T05:04:15.552Z,4.90
2022-12-01T05:06:42.651Z,4.78
2022-12-01T05:09:17.235Z,5.03
2022-12-01T05:11:45.060Z,5.05
2022-12-01T05:14:11.835Z,4.40
2022-12-01T05:16:39.168Z,4.57
2022-12-01T05:19:24.581Z,4.80
2022-12-01T05:21:52.179Z,4.82
2022-12-01T05:24:20.368Z,4.50
2022-12-01T05:26:47.487Z,4.80
2022-12-01T05:29:14.187Z,5.35
2022-12-01T05:31:41.552Z,4.97
2022-12-01T05:34:08.936Z,5.10
2022-12-01T05:36:36.360Z,4.93
2022-12-01T05:39:04.139Z,5.10
2022-12-01T05:41:30.936Z,5.00
2022-12-01T05:43:57.622Z,4.93
2022-12-01T05:46:24.428Z,4.97
2022-12-01T05:48:51.198Z,4.75
2022-12-01T05:51:18.135Z,4.97
2022-12-01T05:53:44.888Z,5.35
2022-12-01T05:56:11.520Z,5.07
2022-12-01T05:58:38.347Z,4.72
2022-12-01T06:01:05.277Z,4.68
2022-12-01T06:03:31.964Z,5.03
2022-12-01T06:05:58.667Z,5.05
2022-12-01T06:08:25.705Z,4.95
2022-12-01T06:10:52.372Z,4.50
2022-12-01T06:13:19.149Z,4.82
2022-12-01T06:15:45.884Z,5.32
2022-12-01T06:18:12.505Z,5.32
2022-12-01T06:20:39.220Z,5.28
2022-12-01T06:23:06.024Z,5.25
2022-12-01T06:25:32.819Z,5.60
2022-12-01T06:27:59.651Z,5.40
2022-12-01T06:30:26.304Z,5.57
2022-12-01T06:32:53.019Z,5.50
2022-12-01T06:35:20.469Z,5.45
2022-12-01T06:37:47.088Z,5.50
2022-12-01T06:40:14.051Z,5.95
2022-12-01T06:42:40.708Z,5.80
2022-12-01T06:45:07.788Z,5.60
2022-12-01T06:47:34.919Z,5.50
2022-12-01T06:50:02.232Z,5.20
2022-12-01T06:52:29.044Z,5.65
2022-12-01T06:54:55.825Z,5.38
2022-12-01T06:57:22.608Z,5.50
2022-12-01T06:59:49.607Z,5.38
2022-12-01T07:02:17.309Z,6.05
2022-12-01T07:04:44.026Z,5.78
2022-12-01T07:07:12.062Z,5.40
2022-12-01T07:09:39.369Z,5.40
2022-12-01T07:12:06.629Z,5.60
2022-12-01T07:14:33.670Z,5.55
2022-12-01T07:17:00.325Z,5.63
2022-12-01T07:19:27.258Z,5.75
2022-12-01T07:21:53.859Z,5.28
2022-12-01T07:24:20.474Z,5.47
2022-12-01T07:26:48.126Z,5.28
2022-12-01T07:29:14.858Z,5.38
2022-12-01T07:31:41.562Z,5.00
2022-12-01T07:34:12.188Z,5.88
2022-12-01T07:36:38.971Z,5.60
2022-12-01T07:39:07.576Z,6.45
2022-12-01T07:41:35.474Z,5.75
2022-12-01T07:44:02.702Z,5.35
2022-12-01T07:46:29.364Z,6.55
2022-12-01T07:48:56.882Z,5.70
2022-12-01T07:51:25.235Z,5.28
2022-12-01T07:53:53.428Z,5.97
2022-12-01T07:56:21.034Z,5.32
2022-12-01T07:58:48.115Z,5.32
2022-12-01T08:01:20.877Z,5.28
2022-12-01T08:03:52.441Z,5.35
2022-12-01T08:06:20.065Z,5.07
2022-12-01T08:08:47.612Z,5.00
2022-12-01T08:11:19.767Z,5.05
2022-12-01T08:13:47.113Z,4.80
2022-12-01T08:16:15.960Z,4.95
2022-12-01T08:18:43.663Z,5.10
2022-12-01T08:21:16.215Z,5.10
2022-12-01T08:23:44.928Z,5.22
2022-12-01T08:26:15.491Z,4.90
2022-12-01T08:31:09.331Z,4.57
2022-12-01T08:33:36.982Z,4.90
2022-12-01T08:36:05.180Z,5.05
2022-12-01T08:38:32.329Z,5.20
2022-12-01T08:41:03.902Z,4.72
2022-12-01T08:46:18.161Z,4.50
2022-12-01T08:48:44.971Z,4.65
2022-12-01T08:51:15.685Z,5.00
2022-12-01T08:53:47.057Z,5.18
2022-12-01T08:56:21.581Z,4.90
2022-12-01T08:58:51.710Z,4.68
2022-12-01T09:01:20.342Z,4.70
2022-12-01T09:03:47.238Z,4.75
2022-12-01T09:06:17.235Z,4.47
2022-12-01T09:08:44.324Z,4.70
2022-12-01T09:11:16.422Z,4.90
2022-12-01T09:13:46.788Z,4.35
2022-12-01T09:16:18.317Z,4.65
2022-12-01T09:18:47.401Z,4.57
2022-12-01T09:21:16.992Z,4.60
2022-12-01T09:23:44.089Z,5.22
2022-12-01T09:26:13.776Z,4.43
2022-12-01T09:28:40.661Z,4.60
2022-12-01T09:31:09.390Z,4.75
2022-12-01T09:33:36.682Z,4.65
2022-12-01T09:36:05.279Z,4.82
2022-12-01T09:38:33.652Z,4.57
2022-12-01T09:41:04.464Z,4.57
2022-12-01T09:43:41.160Z,4.80
2022-12-01T09:46:15.943Z,4.50
2022-12-01T09:48:45.791Z,4.50
2022-12-01T09:51:17.273Z,4.95
2022-12-01T09:53:44.935Z,4.85
2022-12-01T09:56:20.401Z,5.20
2022-12-01T09:59:01.577Z,5.05
2022-12-01T10:01:35.629Z,5.20
2022-12-01T10:04:11.700Z,4.93
2022-12-01T10:06:45.141Z,5.50
2022-12-01T10:09:27.582Z,5.43
2022-12-01T10:12:00.442Z,4.55
2022-12-01T10:14:30.026Z,4.82
2022-12-01T10:17:10.892Z,4.73
2022-12-01T10:20:02.962Z,5.10
2022-12-01T10:22:53.496Z,5.10
2022-12-01T10:28:43.890Z,4.95
2022-12-01T10:34:06.303Z,4.38
2022-12-01T10:36:34.690Z,4.35
2022-12-01T10:39:04.895Z,5.05
2022-12-01T10:41:35.337Z,5.07
2022-12-01T10:46:41.343Z,5.20
2022-12-01T10:49:11.788Z,4.75
2022-12-01T10:54:25.404Z,5.00
2022-12-01T10:56:57.050Z,5.07
2022-12-01T10:59:35.714Z,4.90
2022-12-01T11:02:05.376Z,5.43
2022-12-01T11:04:45.513Z,5.55
2022-12-01T11:07:19.160Z,5.05
2022-12-01T11:09:48.690Z,5.85
2022-12-01T11:12:17.999Z,5.20
2022-12-01T11:14:48.651Z,5.57
2022-12-01T11:17:33.125Z,5.63
2022-12-01T11:20:26.183Z,5.65
2022-12-01T11:23:13.415Z,5.82
2022-12-01T11:25:40.159Z,6.05
2022-12-01T11:28:07.251Z,5.88
2022-12-01T11:30:34.082Z,6.07
2022-12-01T11:33:03.777Z,5.75
2022-12-01T11:35:37.716Z,5.90
2022-12-01T11:38:28.672Z,5.97
2022-12-01T11:40:58.353Z,5.95
2022-12-01T11:43:33.248Z,6.07
2022-12-01T11:46:04.428Z,6.55
2022-12-01T11:48:34.522Z,6.50
2022-12-01T11:51:06.495Z,6.03
2022-12-01T11:53:41.713Z,6.28
2022-12-01T11:56:15.817Z,6.45
2022-12-01T11:58:44.245Z,6.82
2022-12-01T12:01:48.544Z,6.88
2022-12-01T12:04:48.877Z,6.60
2022-12-01T12:07:52.957Z,5.75
2022-12-01T12:10:49.761Z,6.50
2022-12-01T12:13:16.539Z,6.65
2022-12-01T12:16:11.901Z,6.20
2022-12-01T12:18:59.894Z,6.00
2022-12-01T12:21:57.191Z,6.30
2022-12-01T12:24:42.305Z,6.20
2022-12-01T12:27:33.701Z,6.22
2022-12-01T12:30:08.340Z,5.80
2022-12-01T12:33:02.558Z,6.38
2022-12-01T12:35:52.114Z,5.78
2022-12-01T12:38:46.386Z,6.45
2022-12-01T12:41:36.673Z,6.80
2022-12-01T12:44:17.315Z,7.10
2022-12-01T12:49:49.820Z,7.65
2022-12-01T12:52:35.754Z,6.70
2022-12-01T12:55:15.166Z,6.80
2022-12-01T12:57:51.783Z,6.15
2022-12-01T13:00:25.315Z,5.65
2022-12-01T13:03:02.325Z,6.68
2022-12-01T13:05:39.789Z,6.30
2022-12-01T13:08:13.961Z,6.10
2022-12-01T13:10:49.186Z,6.40
2022-12-01T13:14:00.966Z,6.38
2022-12-01T13:16:49.140Z,6.97
2022-12-01T13:19:32.354Z,7.47
2022-12-01T13:22:01.040Z,6.65
2022-12-01T13:24:29.934Z,5.88
2022-12-01T13:27:03.094Z,6.53
2022-12-01T13:29:40.963Z,6.03
2022-12-01T13:32:30.530Z,5.28
2022-12-01T13:34:59.012Z,6.13
2022-12-01T13:37:32.386Z,6.15
2022-12-01T13:40:21.934Z,6.60
2022-12-01T13:43:10.845Z,6.70
2022-12-01T13:45:39.997Z,6.20
2022-12-01T13:48:27.115Z,7.00
2022-12-01T13:51:03.781Z,5.80
2022-12-01T13:53:37.200Z,6.35
2022-12-01T13:56:24.500Z,6.22
2022-12-01T13:58:53.997Z,6.40
2022-12-01T14:01:21.227Z,6.60
2022-12-01T14:04:23.054Z,6.35
2022-12-01T14:07:10.465Z,6.60
2022-12-01T14:09:39.389Z,6.50
2022-12-01T14:12:16.819Z,6.40
2022-12-01T14:14:54.861Z,6.32
2022-12-01T14:17:31.201Z,5.97
2022-12-01T14:20:08.364Z,5.80
2022-12-01T14:22:44.154Z,6.10
2022-12-01T14:25:19.829Z,6.82
2022-12-01T14:27:49.041Z,6.57
2022-12-01T14:30:40.932Z,7.13
2022-12-01T14:33:44.972Z,6.57
2022-12-01T14:36:23.831Z,6.72
2022-12-01T14:38:59.524Z,6.25
2022-12-01T14:41:29.165Z,6.15
2022-12-01T14:44:03.770Z,6.53
2022-12-01T14:46:54.693Z,6.65
2022-12-01T14:49:29.907Z,6.75
2022-12-01T14:52:03.964Z,6.38
2022-12-01T14:54:35.386Z,6.60
2022-12-01T14:57:06.774Z,6.93
2022-12-01T14:59:34.935Z,6.35
2022-12-01T15:02:09.636Z,6.50
2022-12-01T15:05:13.761Z,6.22
2022-12-01T15:07:46.755Z,5.97
2022-12-01T15:10:29.154Z,5.85
2022-12-01T15:12:56.540Z,6.07
2022-12-01T15:15:26.863Z,6.00
2022-12-01T15:17:55.770Z,5.70
2022-12-01T15:20:30.136Z,5.47
2022-12-01T15:22:58.626Z,5.70
2022-12-01T15:25:33.592Z,5.78
2022-12-01T15:28:24.991Z,6.10
2022-12-01T15:30:54.695Z,5.32
2022-12-01T15:33:29.023Z,5.85
2022-12-01T15:36:00.567Z,5.10
2022-12-01T15:38:37.856Z,5.85
2022-12-01T15:41:28.357Z,5.88
2022-12-01T15:43:56.033Z,5.25
2022-12-01T15:46:31.215Z,5.32
2022-12-01T15:49:24.259Z,5.57
2022-12-01T15:51:52.489Z,5.63
2022-12-01T15:54:24.278Z,5.53
2022-12-01T15:56:54.175Z,6.05
2022-12-01T15:59:27.732Z,5.50
2022-12-01T16:01:54.965Z,6.55
2022-12-01T16:04:26.117Z,6.20
2022-12-01T16:07:03.546Z,7.63
2022-12-01T16:09:35.306Z,5.90
2022-12-01T16:12:05.114Z,5.68
2022-12-01T16:14:32.346Z,5.50
2022-12-01T16:17:00.149Z,5.30
2022-12-01T16:19:30.244Z,5.65
2022-12-01T16:22:14.408Z,5.40
2022-12-01T16:24:53.970Z,4.95
2022-12-01T16:27:25.501Z,5.32
2022-12-01T16:29:59.369Z,5.15
2022-12-01T16:32:33.900Z,5.50
2022-12-01T16:35:01.106Z,5.38
2022-12-01T16:37:28.128Z,5.55
2022-12-01T16:39:54.895Z,5.80
2022-12-01T16:42:22.172Z,5.88
2022-12-01T16:44:51.177Z,5.50
2022-12-01T16:47:23.461Z,5.47
2022-12-01T16:49:51.406Z,5.30
2022-12-01T16:55:23.132Z,5.47
2022-12-01T16:57:49.685Z,5.57
2022-12-01T17:00:16.783Z,5.32
2022-12-01T17:02:43.474Z,5.95
2022-12-01T17:05:11.344Z,5.50
2022-12-01T17:07:38.267Z,5.45
2022-12-01T17:10:06.405Z,5.10
2022-12-01T17:12:33.045Z,5.25
2022-12-01T17:14:59.632Z,5.00
2022-12-01T17:17:26.245Z,4.75
2022-12-01T17:19:53.696Z,5.10
2022-12-01T17:22:20.586Z,4.70
2022-12-01T17:24:47.545Z,4.75
2022-12-01T17:27:14.410Z,4.55
2022-12-01T17:29:45.887Z,4.88
2022-12-01T17:32:14.618Z,4.75
2022-12-01T17:34:42.638Z,4.53
2022-12-01T17:37:09.263Z,4.82
2022-12-01T17:39:36.008Z,4.95
2022-12-01T17:42:02.861Z,4.88
2022-12-01T17:44:29.508Z,5.22
2022-12-01T17:46:56.284Z,4.78
2022-12-01T17:49:23.041Z,4.40
2022-12-01T17:51:50.866Z,4.85
2022-12-01T17:54:19.720Z,4.85
2022-12-01T17:56:46.484Z,4.75
2022-12-01T17:59:13.365Z,4.57
2022-12-01T18:01:44.330Z,5.30
2022-12-01T18:04:11.052Z,5.20
2022-12-01T18:06:37.893Z,4.60
2022-12-01T18:09:04.963Z,4.90
2022-12-01T18:11:34.556Z,5.07
2022-12-01T18:14:05.034Z,5.20
2022-12-01T18:16:33.016Z,4.63
2022-12-01T18:19:01.470Z,4.38
2022-12-01T18:21:28.804Z,5.03
2022-12-01T18:24:01.286Z,4.63
2022-12-01T18:26:29.963Z,4.80
2022-12-01T18:29:03.453Z,5.03
2022-12-01T18:31:30.877Z,4.95
2022-12-01T18:34:09.782Z,5.10
2022-12-01T18:36:38.236Z,4.50
2022-12-01T18:39:11.795Z,4.88
2022-12-01T18:41:39.028Z,4.60
2022-12-01T18:44:05.976Z,4.72
2022-12-01T18:46:34.022Z,4.68
2022-12-01T18:49:02.681Z,4.80
2022-12-01T18:51:31.972Z,4.93
2022-12-01T18:54:00.402Z,4.82
2022-12-01T18:56:28.040Z,4.60
2022-12-01T18:58:57.502Z,4.93
2022-12-01T19:01:31.865Z,4.82
2022-12-01T19:03:59.720Z,4.95
2022-12-01T19:06:27.916Z,5.10
2022-12-01T19:08:55.634Z,4.82
2022-12-01T19:11:22.654Z,5.00
2022-12-01T19:13:49.571Z,4.88
2022-12-01T19:16:18.443Z,4.93
2022-12-01T19:18:45.715Z,5.10
2022-12-01T19:21:14.625Z,4.93
2022-12-01T19:23:42.270Z,4.95
2022-12-01T19:26:12.623Z,4.63
2022-12-01T19:28:42.169Z,4.38
2022-12-01T19:31:11.723Z,5.07
2022-12-01T19:33:39.646Z,4.45
2022-12-01T19:36:12.264Z,4.82
2022-12-01T19:38:39.830Z,4.63
2022-12-01T19:41:07.491Z,4.53
2022-12-01T19:43:35.457Z,5.00
2022-12-01T19:46:07.521Z,4.93
2022-12-01T19:48:34.449Z,5.18
2022-12-01T19:51:01.185Z,4.63
2022-12-01T19:53:33.339Z,4.85
2022-12-01T19:56:02.577Z,4.70
2022-12-01T19:58:29.805Z,4.53
2022-12-01T20:01:03.906Z,4.80
2022-12-01T20:03:30.675Z,4.68
2022-12-01T20:06:02.285Z,4.90
2022-12-01T20:08:28.928Z,5.13
2022-12-01T20:10:55.649Z,4.95
2022-12-01T20:13:22.273Z,4.72
2022-12-01T20:15:49.178Z,5.22
2022-12-01T20:18:16.065Z,5.30
2022-12-01T20:20:42.972Z,5.20
2022-12-01T20:23:09.572Z,5.00
2022-12-01T20:25:36.549Z,5.15
2022-12-01T20:28:03.826Z,5.18
2022-12-01T20:30:30.518Z,4.80
2022-12-01T20:32:57.239Z,5.30
2022-12-01T20:35:23.926Z,5.38
2022-12-01T20:37:50.561Z,5.43
2022-12-01T20:40:17.282Z,5.07
2022-12-01T20:42:43.932Z,5.40
2022-12-01T20:45:10.964Z,5.20
2022-12-01T20:47:37.909Z,5.05
2022-12-01T20:50:05.500Z,5.35
2022-12-01T20:52:32.199Z,5.43
2022-12-01T20:54:58.982Z,5.20
2022-12-01T20:57:25.679Z,5.43
2022-12-01T20:59:52.328Z,5.50
2022-12-01T21:02:19.093Z,5.90
2022-12-01T21:04:45.804Z,5.97
2022-12-01T21:07:12.437Z,5.68
2022-12-01T21:09:39.419Z,5.55
2022-12-01T21:12:32.259Z,5.63
2022-12-01T21:15:22.024Z,5.55
2022-12-01T21:18:00.701Z,5.57
2022-12-01T21:20:39.239Z,4.90
2022-12-01T21:23:14.936Z,5.35
2022-12-01T21:25:43.195Z,5.75
2022-12-01T21:28:26.276Z,5.53
2022-12-01T21:31:01.570Z,5.28
2022-12-01T21:33:32.806Z,5.10
2022-12-01T21:36:01.886Z,5.13
2022-12-01T21:38:31.528Z,5.45
2022-12-01T21:40:58.158Z,5.47
2022-12-01T21:43:25.754Z,5.20
2022-12-01T21:45:56.837Z,5.00
2022-12-01T21:48:24.113Z,5.65
2022-12-01T21:50:59.493Z,5.18
2022-12-01T21:53:32.085Z,5.15
2022-12-01T21:55:58.706Z,5.32
2022-12-01T21:58:28.879Z,5.30
2022-12-01T22:00:58.292Z,5.40
2022-12-01T22:03:26.995Z,5.10
2022-12-01T22:06:29.321Z,5.30
2022-12-01T22:09:10.649Z,5.13
2022-12-01T22:11:37.519Z,5.28
2022-12-01T22:14:13.025Z,4.85
2022-12-01T22:16:45.198Z,5.00
2022-12-01T22:19:14.950Z,5.20
2022-12-01T22:21:46.743Z,5.20
2022-12-01T22:24:32.576Z,5.30
2022-12-01T22:27:05.316Z,5.35
2022-12-01T22:29:39.313Z,5.25
2022-12-01T22:32:11.760Z,5.25
2022-12-01T22:34:45.073Z,5.03
2022-12-01T22:37:38.409Z,5.53
2022-12-01T22:40:27.983Z,5.45
2022-12-01T22:42:54.955Z,5.15
2022-12-01T22:45:26.562Z,5.43
2022-12-01T22:48:01.942Z,4.78
2022-12-01T22:50:31.425Z,5.20
2022-12-01T22:53:14.897Z,4.97
2022-12-01T22:55:42.242Z,5.28
2022-12-01T22:58:23.691Z,5.13
2022-12-01T23:00:50.965Z,5.18
2022-12-01T23:03:18.093Z,5.38
2022-12-01T23:05:45.297Z,5.07
2022-12-01T23:08:20.069Z,5.15
2022-12-01T23:10:46.786Z,4.82
2022-12-01T23:13:24.693Z,5.05
2022-12-01T23:15:53.648Z,5.70
2022-12-01T23:18:27.963Z,5.20
2022-12-01T23:20:56.707Z,4.80
2022-12-01T23:23:32.295Z,5.15
2022-12-01T23:26:04.903Z,5.13
2022-12-01T23:28:35.458Z,5.05
2022-12-01T23:31:02.348Z,5.13
2022-12-01T23:33:31.528Z,5.15
2022-12-01T23:36:21.532Z,5.00
2022-12-01T23:38:51.730Z,5.13
2022-12-01T23:41:33.622Z,5.07
2022-12-01T23:44:04.205Z,4.82
2022-12-01T23:46:32.483Z,5.25
2022-12-01T23:49:07.162Z,5.10
2022-12-01T23:51:41.525Z,5.05
2022-12-01T23:54:16.476Z,5.35
2022-12-01T23:56:45.151Z,5.07
2022-12-01T23:59:13.435Z,4.60
